sensor_id;sensor_type;location;lat;lon;timestamp;P1;durP1;ratioP1;P2;durP2;ratioP2
5871;SDS011;2962;51.312;7.378;2023-02-28T00:02:16;3.10;;;2.70;;
5871;SDS011;2962;51.312;7.378;2023-02-28T00:04:42;2.90;;;2.70;;
5871;SDS011;2962;51.312;7.378;2023-02-28T00:07:08;4.17;;;2.23;;
5871;SDS011;2962;51.312;7.378;2023-02-28T00:09:33;2.60;;;2.50;;
5871;SDS011;2962;51.312;7.378;2023-02-28T00:11:58;2.60;;;2.50;;
5871;SDS011;2962;51.312;7.378;2023-02-28T00:14:24;4.00;;;2.60;;
5871;SDS011;2962;51.312;7.378;2023-02-28T00:16:49;2.27;;;2.17;;
5871;SDS011;2962;51.312;7.378;2023-02-28T00:19:14;2.77;;;2.23;;
5871;SDS011;2962;51.312;7.378;2023-02-28T00:21:39;4.07;;;2.20;;
5871;SDS011;2962;51.312;7.378;2023-02-28T00:24:05;2.30;;;2.30;;
5871;SDS011;2962;51.312;7.378;2023-02-28T00:26:31;2.83;;;2.63;;
5871;SDS011;2962;51.312;7.378;2023-02-28T00:28:57;2.53;;;2.43;;
5871;SDS011;2962;51.312;7.378;2023-02-28T00:31:22;2.33;;;2.30;;
5871;SDS011;2962;51.312;7.378;2023-02-28T00:33:47;4.83;;;2.10;;
5871;SDS011;2962;51.312;7.378;2023-02-28T00:36:13;2.00;;;1.90;;
5871;SDS011;2962;51.312;7.378;2023-02-28T00:38:38;3.40;;;1.90;;
5871;SDS011;2962;51.312;7.378;2023-02-28T00:41:05;9.57;;;2.75;;
5871;SDS011;2962;51.312;7.378;2023-02-28T00:43:31;3.40;;;2.10;;
5871;SDS011;2962;51.312;7.378;2023-02-28T00:45:57;3.67;;;2.00;;
5871;SDS011;2962;51.312;7.378;2023-02-28T00:48:23;2.47;;;2.27;;
5871;SDS011;2962;51.312;7.378;2023-02-28T00:50:48;4.87;;;3.07;;
5871;SDS011;2962;51.312;7.378;2023-02-28T00:53:14;2.67;;;2.45;;
5871;SDS011;2962;51.312;7.378;2023-02-28T00:55:40;4.13;;;2.20;;
5871;SDS011;2962;51.312;7.378;2023-02-28T00:58:05;2.40;;;2.27;;
5871;SDS011;2962;51.312;7.378;2023-02-28T01:00:30;1.50;;;1.50;;
5871;SDS011;2962;51.312;7.378;2023-02-28T01:02:56;2.33;;;2.10;;
5871;SDS011;2962;51.312;7.378;2023-02-28T01:05:21;6.63;;;2.20;;
5871;SDS011;2962;51.312;7.378;2023-02-28T01:07:46;3.23;;;2.17;;
5871;SDS011;2962;51.312;7.378;2023-02-28T01:10:11;1.90;;;1.80;;
5871;SDS011;2962;51.312;7.378;2023-02-28T01:12:37;1.83;;;1.73;;
5871;SDS011;2962;51.312;7.378;2023-02-28T01:15:03;5.33;;;3.20;;
5871;SDS011;2962;51.312;7.378;2023-02-28T01:17:28;1.73;;;1.63;;
5871;SDS011;2962;51.312;7.378;2023-02-28T01:19:54;2.87;;;1.97;;
5871;SDS011;2962;51.312;7.378;2023-02-28T01:22:20;2.63;;;2.42;;
5871;SDS011;2962;51.312;7.378;2023-02-28T01:24:46;5.40;;;2.90;;
5871;SDS011;2962;51.312;7.378;2023-02-28T01:27:12;2.60;;;2.50;;
5871;SDS011;2962;51.312;7.378;2023-02-28T01:29:38;3.00;;;2.80;;
5871;SDS011;2962;51.312;7.378;2023-02-28T01:32:03;3.53;;;3.23;;
5871;SDS011;2962;51.312;7.378;2023-02-28T01:34:28;5.77;;;4.33;;
5871;SDS011;2962;51.312;7.378;2023-02-28T01:36:54;3.93;;;3.37;;
5871;SDS011;2962;51.312;7.378;2023-02-28T01:39:19;8.93;;;3.50;;
5871;SDS011;2962;51.312;7.378;2023-02-28T01:41:44;3.13;;;3.03;;
5871;SDS011;2962;51.312;7.378;2023-02-28T01:47:12;3.35;;;2.72;;
5871;SDS011;2962;51.312;7.378;2023-02-28T01:49:38;5.17;;;3.10;;
5871;SDS011;2962;51.312;7.378;2023-02-28T01:52:04;8.30;;;2.77;;
5871;SDS011;2962;51.312;7.378;2023-02-28T01:54:30;4.70;;;3.53;;
5871;SDS011;2962;51.312;7.378;2023-02-28T01:57:00;3.70;;;3.50;;
5871;SDS011;2962;51.312;7.378;2023-02-28T01:59:39;3.67;;;3.03;;
5871;SDS011;2962;51.312;7.378;2023-02-28T02:02:11;4.20;;;3.60;;
5871;SDS011;2962;51.312;7.378;2023-02-28T02:04:39;3.63;;;3.25;;
5871;SDS011;2962;51.312;7.378;2023-02-28T02:07:11;2.88;;;2.65;;
5871;SDS011;2962;51.312;7.378;2023-02-28T02:09:38;3.63;;;3.00;;
5871;SDS011;2962;51.312;7.378;2023-02-28T02:12:07;2.70;;;2.50;;
5871;SDS011;2962;51.312;7.378;2023-02-28T02:15:04;12.00;;;3.28;;
5871;SDS011;2962;51.312;7.378;2023-02-28T02:17:48;3.85;;;3.47;;
5871;SDS011;2962;51.312;7.378;2023-02-28T02:20:27;5.80;;;3.45;;
5871;SDS011;2962;51.312;7.378;2023-02-28T02:28:36;5.35;;;3.17;;
5871;SDS011;2962;51.312;7.378;2023-02-28T02:36:48;2.55;;;2.35;;
5871;SDS011;2962;51.312;7.378;2023-02-28T02:39:24;3.50;;;2.17;;
5871;SDS011;2962;51.312;7.378;2023-02-28T02:41:52;2.40;;;2.30;;
5871;SDS011;2962;51.312;7.378;2023-02-28T02:44:30;2.15;;;2.05;;
5871;SDS011;2962;51.312;7.378;2023-02-28T02:47:09;2.35;;;2.20;;
5871;SDS011;2962;51.312;7.378;2023-02-28T02:49:38;4.32;;;2.72;;
5871;SDS011;2962;51.312;7.378;2023-02-28T02:52:07;4.00;;;2.55;;
5871;SDS011;2962;51.312;7.378;2023-02-28T02:54:39;2.75;;;2.65;;
5871;SDS011;2962;51.312;7.378;2023-02-28T02:57:10;2.55;;;2.35;;
5871;SDS011;2962;51.312;7.378;2023-02-28T02:59:40;4.60;;;2.50;;
5871;SDS011;2962;51.312;7.378;2023-02-28T03:02:07;2.38;;;2.28;;
5871;SDS011;2962;51.312;7.378;2023-02-28T03:04:38;2.78;;;2.70;;
5871;SDS011;2962;51.312;7.378;2023-02-28T03:07:07;2.60;;;2.50;;
5871;SDS011;2962;51.312;7.378;2023-02-28T03:09:33;2.57;;;2.47;;
5871;SDS011;2962;51.312;7.378;2023-02-28T03:12:00;2.67;;;2.58;;
5871;SDS011;2962;51.312;7.378;2023-02-28T03:17:25;2.53;;;2.42;;
5871;SDS011;2962;51.312;7.378;2023-02-28T03:20:13;2.00;;;1.90;;
5871;SDS011;2962;51.312;7.378;2023-02-28T03:25:31;2.78;;;2.67;;
5871;SDS011;2962;51.312;7.378;2023-02-28T03:28:00;2.63;;;2.53;;
5871;SDS011;2962;51.312;7.378;2023-02-28T03:30:35;2.83;;;2.40;;
5871;SDS011;2962;51.312;7.378;2023-02-28T03:33:08;3.03;;;2.63;;
5871;SDS011;2962;51.312;7.378;2023-02-28T03:35:40;3.20;;;2.10;;
5871;SDS011;2962;51.312;7.378;2023-02-28T03:38:28;2.28;;;1.77;;
5871;SDS011;2962;51.312;7.378;2023-02-28T03:41:21;1.50;;;1.40;;
5871;SDS011;2962;51.312;7.378;2023-02-28T03:43:53;1.30;;;1.30;;
5871;SDS011;2962;51.312;7.378;2023-02-28T03:46:22;2.05;;;1.88;;
5871;SDS011;2962;51.312;7.378;2023-02-28T03:49:02;1.55;;;1.55;;
5871;SDS011;2962;51.312;7.378;2023-02-28T03:51:32;2.03;;;1.92;;
5871;SDS011;2962;51.312;7.378;2023-02-28T03:54:02;2.05;;;1.90;;
5871;SDS011;2962;51.312;7.378;2023-02-28T03:59:38;2.20;;;2.10;;
5871;SDS011;2962;51.312;7.378;2023-02-28T04:02:06;1.88;;;1.77;;
5871;SDS011;2962;51.312;7.378;2023-02-28T04:04:32;1.90;;;1.90;;
5871;SDS011;2962;51.312;7.378;2023-02-28T04:07:06;3.10;;;2.25;;
5871;SDS011;2962;51.312;7.378;2023-02-28T04:09:33;1.77;;;1.77;;
5871;SDS011;2962;51.312;7.378;2023-02-28T04:11:59;1.87;;;1.73;;
5871;SDS011;2962;51.312;7.378;2023-02-28T04:14:24;2.20;;;2.20;;
5871;SDS011;2962;51.312;7.378;2023-02-28T04:16:49;1.80;;;1.70;;
5871;SDS011;2962;51.312;7.378;2023-02-28T04:19:16;2.10;;;2.05;;
5871;SDS011;2962;51.312;7.378;2023-02-28T04:21:45;1.60;;;1.60;;
5871;SDS011;2962;51.312;7.378;2023-02-28T04:24:13;3.78;;;1.70;;
5871;SDS011;2962;51.312;7.378;2023-02-28T04:26:41;1.95;;;1.85;;
5871;SDS011;2962;51.312;7.378;2023-02-28T04:29:09;1.55;;;1.55;;
5871;SDS011;2962;51.312;7.378;2023-02-28T04:31:35;1.70;;;1.70;;
5871;SDS011;2962;51.312;7.378;2023-02-28T04:34:00;2.10;;;1.23;;
5871;SDS011;2962;51.312;7.378;2023-02-28T04:36:26;1.90;;;1.80;;
5871;SDS011;2962;51.312;7.378;2023-02-28T04:38:52;2.42;;;1.48;;
5871;SDS011;2962;51.312;7.378;2023-02-28T04:41:19;1.90;;;1.67;;
5871;SDS011;2962;51.312;7.378;2023-02-28T04:43:44;1.75;;;1.65;;
5871;SDS011;2962;51.312;7.378;2023-02-28T04:46:10;1.70;;;1.70;;
5871;SDS011;2962;51.312;7.378;2023-02-28T04:48:36;3.43;;;2.23;;
5871;SDS011;2962;51.312;7.378;2023-02-28T04:51:03;2.40;;;2.30;;
5871;SDS011;2962;51.312;7.378;2023-02-28T04:53:30;2.10;;;1.50;;
5871;SDS011;2962;51.312;7.378;2023-02-28T04:55:56;2.20;;;2.10;;
5871;SDS011;2962;51.312;7.378;2023-02-28T04:58:23;3.03;;;1.38;;
5871;SDS011;2962;51.312;7.378;2023-02-28T05:00:48;1.90;;;1.40;;
5871;SDS011;2962;51.312;7.378;2023-02-28T05:03:14;1.60;;;1.60;;
5871;SDS011;2962;51.312;7.378;2023-02-28T05:05:39;1.77;;;1.77;;
5871;SDS011;2962;51.312;7.378;2023-02-28T05:08:05;2.00;;;1.90;;
5871;SDS011;2962;51.312;7.378;2023-02-28T05:10:30;1.60;;;1.60;;
5871;SDS011;2962;51.312;7.378;2023-02-28T05:12:56;1.30;;;1.30;;
5871;SDS011;2962;51.312;7.378;2023-02-28T05:15:21;1.60;;;1.60;;
5871;SDS011;2962;51.312;7.378;2023-02-28T05:17:46;1.57;;;1.40;;
5871;SDS011;2962;51.312;7.378;2023-02-28T05:20:12;1.27;;;1.17;;
5871;SDS011;2962;51.312;7.378;2023-02-28T05:22:38;1.85;;;1.85;;
5871;SDS011;2962;51.312;7.378;2023-02-28T05:25:05;1.52;;;1.52;;
5871;SDS011;2962;51.312;7.378;2023-02-28T05:27:30;1.50;;;1.50;;
5871;SDS011;2962;51.312;7.378;2023-02-28T05:29:56;1.63;;;1.53;;
5871;SDS011;2962;51.312;7.378;2023-02-28T05:32:22;1.20;;;1.20;;
5871;SDS011;2962;51.312;7.378;2023-02-28T05:34:47;1.20;;;1.20;;
5871;SDS011;2962;51.312;7.378;2023-02-28T05:37:13;0.97;;;0.97;;
5871;SDS011;2962;51.312;7.378;2023-02-28T05:39:39;1.27;;;1.27;;
5871;SDS011;2962;51.312;7.378;2023-02-28T05:42:04;1.50;;;1.50;;
5871;SDS011;2962;51.312;7.378;2023-02-28T05:44:30;1.10;;;1.10;;
5871;SDS011;2962;51.312;7.378;2023-02-28T05:46:55;1.30;;;1.30;;
5871;SDS011;2962;51.312;7.378;2023-02-28T05:49:20;1.93;;;1.87;;
5871;SDS011;2962;51.312;7.378;2023-02-28T05:51:46;1.23;;;1.23;;
5871;SDS011;2962;51.312;7.378;2023-02-28T05:54:11;1.60;;;1.50;;
5871;SDS011;2962;51.312;7.378;2023-02-28T05:56:36;1.10;;;1.10;;
5871;SDS011;2962;51.312;7.378;2023-02-28T05:59:06;1.35;;;1.25;;
5871;SDS011;2962;51.312;7.378;2023-02-28T06:01:33;1.50;;;1.40;;
5871;SDS011;2962;51.312;7.378;2023-02-28T06:04:13;1.30;;;1.30;;
5871;SDS011;2962;51.312;7.378;2023-02-28T06:06:42;1.88;;;1.35;;
5871;SDS011;2962;51.312;7.378;2023-02-28T06:09:12;3.42;;;1.90;;
5871;SDS011;2962;51.312;7.378;2023-02-28T06:11:37;2.70;;;1.60;;
5871;SDS011;2962;51.312;7.378;2023-02-28T06:14:02;1.70;;;1.60;;
5871;SDS011;2962;51.312;7.378;2023-02-28T06:16:29;3.92;;;1.42;;
5871;SDS011;2962;51.312;7.378;2023-02-28T06:18:59;1.80;;;1.70;;
5871;SDS011;2962;51.312;7.378;2023-02-28T06:21:26;2.15;;;2.03;;
5871;SDS011;2962;51.312;7.378;2023-02-28T06:23:55;2.10;;;2.00;;
5871;SDS011;2962;51.312;7.378;2023-02-28T06:26:21;1.80;;;1.70;;
5871;SDS011;2962;51.312;7.378;2023-02-28T06:28:46;1.23;;;1.23;;
5871;SDS011;2962;51.312;7.378;2023-02-28T06:31:13;4.67;;;1.77;;
5871;SDS011;2962;51.312;7.378;2023-02-28T06:33:40;2.00;;;1.90;;
5871;SDS011;2962;51.312;7.378;2023-02-28T06:36:07;2.25;;;1.95;;
5871;SDS011;2962;51.312;7.378;2023-02-28T06:38:33;1.70;;;1.60;;
5871;SDS011;2962;51.312;7.378;2023-02-28T06:41:00;1.83;;;1.63;;
5871;SDS011;2962;51.312;7.378;2023-02-28T06:43:27;1.38;;;1.38;;
5871;SDS011;2962;51.312;7.378;2023-02-28T06:45:55;2.10;;;1.90;;
5871;SDS011;2962;51.312;7.378;2023-02-28T06:48:22;2.20;;;2.10;;
5871;SDS011;2962;51.312;7.378;2023-02-28T06:50:48;2.93;;;1.60;;
5871;SDS011;2962;51.312;7.378;2023-02-28T06:53:13;1.70;;;1.70;;
5871;SDS011;2962;51.312;7.378;2023-02-28T06:55:39;1.50;;;1.50;;
5871;SDS011;2962;51.312;7.378;2023-02-28T06:58:05;1.40;;;1.40;;
5871;SDS011;2962;51.312;7.378;2023-02-28T07:00:43;1.40;;;1.38;;
5871;SDS011;2962;51.312;7.378;2023-02-28T07:03:09;1.00;;;1.00;;
5871;SDS011;2962;51.312;7.378;2023-02-28T07:05:35;1.20;;;1.20;;
5871;SDS011;2962;51.312;7.378;2023-02-28T07:08:01;1.40;;;1.40;;
5871;SDS011;2962;51.312;7.378;2023-02-28T07:10:28;1.45;;;0.98;;
5871;SDS011;2962;51.312;7.378;2023-02-28T07:12:53;1.47;;;1.47;;
5871;SDS011;2962;51.312;7.378;2023-02-28T07:15:18;1.70;;;1.70;;
5871;SDS011;2962;51.312;7.378;2023-02-28T07:17:44;1.63;;;1.60;;
5871;SDS011;2962;51.312;7.378;2023-02-28T07:20:09;3.00;;;1.50;;
5871;SDS011;2962;51.312;7.378;2023-02-28T07:22:35;1.93;;;0.90;;
5871;SDS011;2962;51.312;7.378;2023-02-28T07:25:00;1.23;;;1.20;;
5871;SDS011;2962;51.312;7.378;2023-02-28T07:27:25;2.80;;;1.53;;
5871;SDS011;2962;51.312;7.378;2023-02-28T07:29:51;1.57;;;1.57;;
5871;SDS011;2962;51.312;7.378;2023-02-28T07:32:18;2.25;;;1.10;;
5871;SDS011;2962;51.312;7.378;2023-02-28T07:34:43;1.87;;;1.70;;
5871;SDS011;2962;51.312;7.378;2023-02-28T07:37:09;1.37;;;1.37;;
5871;SDS011;2962;51.312;7.378;2023-02-28T07:39:34;1.40;;;1.40;;
5871;SDS011;2962;51.312;7.378;2023-02-28T07:41:59;3.80;;;1.63;;
5871;SDS011;2962;51.312;7.378;2023-02-28T07:44:26;1.13;;;1.13;;
5871;SDS011;2962;51.312;7.378;2023-02-28T07:46:52;1.03;;;1.03;;
5871;SDS011;2962;51.312;7.378;2023-02-28T07:49:17;1.20;;;1.20;;
5871;SDS011;2962;51.312;7.378;2023-02-28T07:51:43;1.30;;;1.30;;
5871;SDS011;2962;51.312;7.378;2023-02-28T07:54:08;0.83;;;0.83;;
5871;SDS011;2962;51.312;7.378;2023-02-28T07:56:33;1.33;;;1.20;;
5871;SDS011;2962;51.312;7.378;2023-02-28T07:58:58;0.90;;;0.90;;
5871;SDS011;2962;51.312;7.378;2023-02-28T08:01:24;1.50;;;1.47;;
5871;SDS011;2962;51.312;7.378;2023-02-28T08:03:50;1.73;;;1.20;;
5871;SDS011;2962;51.312;7.378;2023-02-28T08:06:16;1.80;;;1.17;;
5871;SDS011;2962;51.312;7.378;2023-02-28T08:08:44;1.30;;;1.30;;
5871;SDS011;2962;51.312;7.378;2023-02-28T08:11:09;2.20;;;1.77;;
5871;SDS011;2962;51.312;7.378;2023-02-28T08:13:35;2.90;;;2.70;;
5871;SDS011;2962;51.312;7.378;2023-02-28T08:16:01;8.43;;;2.17;;
5871;SDS011;2962;51.312;7.378;2023-02-28T08:18:27;2.38;;;2.17;;
5871;SDS011;2962;51.312;7.378;2023-02-28T08:20:52;2.43;;;1.60;;
5871;SDS011;2962;51.312;7.378;2023-02-28T08:23:17;1.87;;;1.87;;
5871;SDS011;2962;51.312;7.378;2023-02-28T08:25:43;2.80;;;1.87;;
5871;SDS011;2962;51.312;7.378;2023-02-28T08:28:08;1.60;;;1.60;;
5871;SDS011;2962;51.312;7.378;2023-02-28T08:30:33;1.80;;;1.80;;
5871;SDS011;2962;51.312;7.378;2023-02-28T08:32:58;3.77;;;1.60;;
5871;SDS011;2962;51.312;7.378;2023-02-28T08:35:24;1.77;;;1.77;;
5871;SDS011;2962;51.312;7.378;2023-02-28T08:37:49;1.70;;;1.60;;
5871;SDS011;2962;51.312;7.378;2023-02-28T08:40:15;3.50;;;1.67;;
5871;SDS011;2962;51.312;7.378;2023-02-28T08:42:47;1.60;;;1.50;;
5871;SDS011;2962;51.312;7.378;2023-02-28T08:45:13;2.25;;;1.48;;
5871;SDS011;2962;51.312;7.378;2023-02-28T08:47:39;3.60;;;1.67;;
5871;SDS011;2962;51.312;7.378;2023-02-28T08:50:05;1.50;;;1.40;;
5871;SDS011;2962;51.312;7.378;2023-02-28T08:52:32;1.67;;;1.65;;
5871;SDS011;2962;51.312;7.378;2023-02-28T08:54:58;1.73;;;1.63;;
5871;SDS011;2962;51.312;7.378;2023-02-28T08:57:23;1.93;;;1.73;;
5871;SDS011;2962;51.312;7.378;2023-02-28T08:59:51;1.90;;;1.90;;
5871;SDS011;2962;51.312;7.378;2023-02-28T09:02:16;1.40;;;1.40;;
5871;SDS011;2962;51.312;7.378;2023-02-28T09:04:41;2.33;;;1.70;;
5871;SDS011;2962;51.312;7.378;2023-02-28T09:07:07;1.60;;;1.60;;
5871;SDS011;2962;51.312;7.378;2023-02-28T09:09:32;1.70;;;1.53;;
5871;SDS011;2962;51.312;7.378;2023-02-28T09:11:57;1.97;;;1.87;;
5871;SDS011;2962;51.312;7.378;2023-02-28T09:14:22;1.47;;;1.47;;
5871;SDS011;2962;51.312;7.378;2023-02-28T09:16:48;7.13;;;1.77;;
5871;SDS011;2962;51.312;7.378;2023-02-28T09:19:13;1.87;;;1.87;;
5871;SDS011;2962;51.312;7.378;2023-02-28T09:21:39;1.90;;;1.80;;
5871;SDS011;2962;51.312;7.378;2023-02-28T09:24:04;1.90;;;1.70;;
5871;SDS011;2962;51.312;7.378;2023-02-28T09:26:30;2.43;;;1.70;;
5871;SDS011;2962;51.312;7.378;2023-02-28T09:28:55;2.40;;;1.30;;
5871;SDS011;2962;51.312;7.378;2023-02-28T09:31:24;6.55;;;1.23;;
5871;SDS011;2962;51.312;7.378;2023-02-28T09:33:53;1.80;;;1.17;;
5871;SDS011;2962;51.312;7.378;2023-02-28T09:36:20;1.08;;;1.08;;
5871;SDS011;2962;51.312;7.378;2023-02-28T09:38:46;1.55;;;1.35;;
5871;SDS011;2962;51.312;7.378;2023-02-28T09:41:16;1.17;;;1.17;;
5871;SDS011;2962;51.312;7.378;2023-02-28T09:43:52;0.93;;;0.93;;
5871;SDS011;2962;51.312;7.378;2023-02-28T09:46:32;0.82;;;0.82;;
5871;SDS011;2962;51.312;7.378;2023-02-28T09:49:04;0.80;;;0.80;;
5871;SDS011;2962;51.312;7.378;2023-02-28T09:54:18;1.30;;;1.20;;
5871;SDS011;2962;51.312;7.378;2023-02-28T09:56:56;0.98;;;0.98;;
5871;SDS011;2962;51.312;7.378;2023-02-28T10:02:03;0.95;;;0.95;;
5871;SDS011;2962;51.312;7.378;2023-02-28T10:15:53;1.10;;;1.10;;
5871;SDS011;2962;51.312;7.378;2023-02-28T10:18:24;1.30;;;1.20;;
5871;SDS011;2962;51.312;7.378;2023-02-28T10:21:00;1.02;;;0.90;;
5871;SDS011;2962;51.312;7.378;2023-02-28T10:23:27;1.20;;;1.20;;
5871;SDS011;2962;51.312;7.378;2023-02-28T10:25:58;1.10;;;1.00;;
5871;SDS011;2962;51.312;7.378;2023-02-28T10:28:26;1.30;;;1.13;;
5871;SDS011;2962;51.312;7.378;2023-02-28T10:30:54;1.48;;;1.00;;
5871;SDS011;2962;51.312;7.378;2023-02-28T10:36:03;1.13;;;1.13;;
5871;SDS011;2962;51.312;7.378;2023-02-28T10:38:36;1.40;;;1.30;;
5871;SDS011;2962;51.312;7.378;2023-02-28T10:41:13;1.43;;;1.33;;
5871;SDS011;2962;51.312;7.378;2023-02-28T10:43:41;1.27;;;1.27;;
5871;SDS011;2962;51.312;7.378;2023-02-28T10:48:47;1.40;;;1.40;;
5871;SDS011;2962;51.312;7.378;2023-02-28T10:51:26;1.13;;;1.13;;
5871;SDS011;2962;51.312;7.378;2023-02-28T10:54:00;1.33;;;1.23;;
5871;SDS011;2962;51.312;7.378;2023-02-28T10:56:25;1.47;;;1.47;;
5871;SDS011;2962;51.312;7.378;2023-02-28T11:01:54;1.23;;;1.23;;
5871;SDS011;2962;51.312;7.378;2023-02-28T11:06:48;1.90;;;1.53;;
5871;SDS011;2962;51.312;7.378;2023-02-28T11:09:24;1.77;;;1.77;;
5871;SDS011;2962;51.312;7.378;2023-02-28T11:11:54;1.63;;;1.50;;
5871;SDS011;2962;51.312;7.378;2023-02-28T11:16:58;2.00;;;2.00;;
5871;SDS011;2962;51.312;7.378;2023-02-28T11:19:38;2.33;;;1.90;;
5871;SDS011;2962;51.312;7.378;2023-02-28T11:22:08;1.50;;;1.50;;
5871;SDS011;2962;51.312;7.378;2023-02-28T11:24:42;1.70;;;1.60;;
5871;SDS011;2962;51.312;7.378;2023-02-28T11:27:40;5.00;;;1.40;;
5871;SDS011;2962;51.312;7.378;2023-02-28T11:30:30;5.40;;;1.90;;
5871;SDS011;2962;51.312;7.378;2023-02-28T11:32:57;1.90;;;1.73;;
5871;SDS011;2962;51.312;7.378;2023-02-28T11:35:24;1.70;;;1.70;;
5871;SDS011;2962;51.312;7.378;2023-02-28T11:37:54;1.70;;;1.70;;
5871;SDS011;2962;51.312;7.378;2023-02-28T11:40:25;1.27;;;1.27;;
5871;SDS011;2962;51.312;7.378;2023-02-28T11:43:06;1.20;;;1.20;;
5871;SDS011;2962;51.312;7.378;2023-02-28T11:45:47;1.63;;;1.33;;
5871;SDS011;2962;51.312;7.378;2023-02-28T11:51:23;1.47;;;1.47;;
5871;SDS011;2962;51.312;7.378;2023-02-28T11:54:21;1.50;;;1.40;;
5871;SDS011;2962;51.312;7.378;2023-02-28T11:56:58;1.90;;;1.80;;
5871;SDS011;2962;51.312;7.378;2023-02-28T12:04:53;2.07;;;1.97;;
5871;SDS011;2962;51.312;7.378;2023-02-28T12:10:20;1.97;;;1.97;;
5871;SDS011;2962;51.312;7.378;2023-02-28T12:28:42;1.70;;;1.70;;
5871;SDS011;2962;51.312;7.378;2023-02-28T12:31:22;1.80;;;1.77;;
5871;SDS011;2962;51.312;7.378;2023-02-28T12:33:52;2.00;;;1.80;;
5871;SDS011;2962;51.312;7.378;2023-02-28T12:36:21;1.60;;;1.60;;
5871;SDS011;2962;51.312;7.378;2023-02-28T12:38:50;1.30;;;1.30;;
5871;SDS011;2962;51.312;7.378;2023-02-28T12:41:47;1.87;;;1.80;;
5871;SDS011;2962;51.312;7.378;2023-02-28T12:44:19;1.53;;;1.53;;
5871;SDS011;2962;51.312;7.378;2023-02-28T12:46:52;1.40;;;1.40;;
5871;SDS011;2962;51.312;7.378;2023-02-28T12:49:25;1.80;;;1.80;;
5871;SDS011;2962;51.312;7.378;2023-02-28T12:51:56;1.73;;;1.73;;
5871;SDS011;2962;51.312;7.378;2023-02-28T12:54:33;1.90;;;1.90;;
5871;SDS011;2962;51.312;7.378;2023-02-28T12:57:09;1.83;;;1.73;;
5871;SDS011;2962;51.312;7.378;2023-02-28T12:59:45;2.20;;;2.03;;
5871;SDS011;2962;51.312;7.378;2023-02-28T13:02:24;2.53;;;1.90;;
5871;SDS011;2962;51.312;7.378;2023-02-28T13:10:24;1.60;;;1.60;;
5871;SDS011;2962;51.312;7.378;2023-02-28T13:13:06;1.90;;;1.90;;
5871;SDS011;2962;51.312;7.378;2023-02-28T13:15:36;1.77;;;1.67;;
5871;SDS011;2962;51.312;7.378;2023-02-28T13:18:20;3.63;;;1.50;;
5871;SDS011;2962;51.312;7.378;2023-02-28T13:20:55;1.63;;;1.63;;
5871;SDS011;2962;51.312;7.378;2023-02-28T13:23:37;1.73;;;1.63;;
5871;SDS011;2962;51.312;7.378;2023-02-28T13:26:05;1.60;;;1.50;;
5871;SDS011;2962;51.312;7.378;2023-02-28T13:31:43;2.00;;;2.00;;
5871;SDS011;2962;51.312;7.378;2023-02-28T13:34:30;2.73;;;2.00;;
5871;SDS011;2962;51.312;7.378;2023-02-28T13:47:27;2.00;;;2.00;;
5871;SDS011;2962;51.312;7.378;2023-02-28T13:50:14;1.97;;;1.97;;
5871;SDS011;2962;51.312;7.378;2023-02-28T13:52:48;2.00;;;2.00;;
5871;SDS011;2962;51.312;7.378;2023-02-28T14:01:16;2.57;;;2.47;;
5871;SDS011;2962;51.312;7.378;2023-02-28T14:07:16;2.50;;;2.17;;
5871;SDS011;2962;51.312;7.378;2023-02-28T14:09:57;1.97;;;1.97;;
5871;SDS011;2962;51.312;7.378;2023-02-28T14:18:20;2.67;;;2.47;;
5871;SDS011;2962;51.312;7.378;2023-02-28T14:20:48;2.30;;;2.20;;
5871;SDS011;2962;51.312;7.378;2023-02-28T14:26:02;2.43;;;2.43;;
5871;SDS011;2962;51.312;7.378;2023-02-28T14:28:41;2.00;;;1.90;;
5871;SDS011;2962;51.312;7.378;2023-02-28T14:34:05;2.00;;;1.90;;
5871;SDS011;2962;51.312;7.378;2023-02-28T14:36:39;2.77;;;2.67;;
5871;SDS011;2962;51.312;7.378;2023-02-28T14:39:07;2.50;;;2.40;;
5871;SDS011;2962;51.312;7.378;2023-02-28T14:41:39;2.33;;;2.23;;
5871;SDS011;2962;51.312;7.378;2023-02-28T14:46:52;2.20;;;2.20;;
5871;SDS011;2962;51.312;7.378;2023-02-28T14:50:05;2.50;;;2.50;;
5871;SDS011;2962;51.312;7.378;2023-02-28T14:52:20;2.50;;;2.40;;
5871;SDS011;2962;51.312;7.378;2023-02-28T14:54:51;1.97;;;1.97;;
5871;SDS011;2962;51.312;7.378;2023-02-28T14:57:25;3.33;;;1.97;;
5871;SDS011;2962;51.312;7.378;2023-02-28T15:02:45;2.30;;;2.20;;
5871;SDS011;2962;51.312;7.378;2023-02-28T15:07:42;2.03;;;1.93;;
5871;SDS011;2962;51.312;7.378;2023-02-28T15:12:40;2.43;;;2.33;;
5871;SDS011;2962;51.312;7.378;2023-02-28T15:15:17;2.53;;;2.43;;
5871;SDS011;2962;51.312;7.378;2023-02-28T15:17:45;2.23;;;2.20;;
5871;SDS011;2962;51.312;7.378;2023-02-28T15:20:15;2.30;;;2.30;;
5871;SDS011;2962;51.312;7.378;2023-02-28T15:22:41;2.17;;;2.17;;
5871;SDS011;2962;51.312;7.378;2023-02-28T15:25:09;3.03;;;2.93;;
5871;SDS011;2962;51.312;7.378;2023-02-28T15:27:41;2.87;;;2.67;;
5871;SDS011;2962;51.312;7.378;2023-02-28T15:30:17;2.70;;;2.60;;
5871;SDS011;2962;51.312;7.378;2023-02-28T15:33:02;3.80;;;3.07;;
5871;SDS011;2962;51.312;7.378;2023-02-28T15:35:47;3.10;;;3.00;;
5871;SDS011;2962;51.312;7.378;2023-02-28T15:38:17;2.90;;;2.80;;
5871;SDS011;2962;51.312;7.378;2023-02-28T15:40:52;3.10;;;3.00;;
5871;SDS011;2962;51.312;7.378;2023-02-28T15:43:24;2.90;;;2.80;;
5871;SDS011;2962;51.312;7.378;2023-02-28T15:45:50;3.63;;;3.33;;
5871;SDS011;2962;51.312;7.378;2023-02-28T15:51:06;2.90;;;2.90;;
5871;SDS011;2962;51.312;7.378;2023-02-28T15:53:43;2.40;;;2.40;;
5871;SDS011;2962;51.312;7.378;2023-02-28T15:56:18;2.67;;;2.53;;
5871;SDS011;2962;51.312;7.378;2023-02-28T15:58:48;2.67;;;2.47;;
5871;SDS011;2962;51.312;7.378;2023-02-28T16:03:57;3.03;;;2.87;;
5871;SDS011;2962;51.312;7.378;2023-02-28T16:06:41;3.47;;;3.20;;
5871;SDS011;2962;51.312;7.378;2023-02-28T16:09:09;2.53;;;2.43;;
5871;SDS011;2962;51.312;7.378;2023-02-28T16:11:40;3.07;;;2.97;;
5871;SDS011;2962;51.312;7.378;2023-02-28T16:14:12;3.07;;;2.97;;
5871;SDS011;2962;51.312;7.378;2023-02-28T16:16:48;3.40;;;3.20;;
5871;SDS011;2962;51.312;7.378;2023-02-28T16:19:15;5.47;;;5.00;;
5871;SDS011;2962;51.312;7.378;2023-02-28T16:21:40;3.87;;;3.50;;
5871;SDS011;2962;51.312;7.378;2023-02-28T16:24:06;4.07;;;3.27;;
5871;SDS011;2962;51.312;7.378;2023-02-28T16:26:32;4.13;;;3.33;;
5871;SDS011;2962;51.312;7.378;2023-02-28T16:28:59;2.97;;;2.87;;
5871;SDS011;2962;51.312;7.378;2023-02-28T16:31:25;3.00;;;2.80;;
5871;SDS011;2962;51.312;7.378;2023-02-28T16:33:51;2.97;;;2.80;;
5871;SDS011;2962;51.312;7.378;2023-02-28T16:36:20;3.70;;;3.40;;
5871;SDS011;2962;51.312;7.378;2023-02-28T16:38:48;3.07;;;3.07;;
5871;SDS011;2962;51.312;7.378;2023-02-28T16:41:31;3.13;;;2.93;;
5871;SDS011;2962;51.312;7.378;2023-02-28T16:43:59;3.87;;;3.53;;
5871;SDS011;2962;51.312;7.378;2023-02-28T16:46:27;3.10;;;2.83;;
5871;SDS011;2962;51.312;7.378;2023-02-28T16:48:55;3.20;;;2.97;;
5871;SDS011;2962;51.312;7.378;2023-02-28T16:51:21;2.50;;;2.40;;
5871;SDS011;2962;51.312;7.378;2023-02-28T16:53:46;3.57;;;3.27;;
5871;SDS011;2962;51.312;7.378;2023-02-28T16:56:17;2.90;;;2.80;;
5871;SDS011;2962;51.312;7.378;2023-02-28T16:58:47;3.70;;;3.10;;
5871;SDS011;2962;51.312;7.378;2023-02-28T17:01:13;3.40;;;3.22;;
5871;SDS011;2962;51.312;7.378;2023-02-28T17:03:39;3.40;;;3.10;;
5871;SDS011;2962;51.312;7.378;2023-02-28T17:06:06;4.63;;;3.23;;
5871;SDS011;2962;51.312;7.378;2023-02-28T17:08:40;3.67;;;3.40;;
5871;SDS011;2962;51.312;7.378;2023-02-28T17:11:05;4.30;;;3.80;;
5871;SDS011;2962;51.312;7.378;2023-02-28T17:13:31;3.37;;;3.17;;
5871;SDS011;2962;51.312;7.378;2023-02-28T17:15:59;4.57;;;2.83;;
5871;SDS011;2962;51.312;7.378;2023-02-28T17:18:24;4.80;;;4.10;;
5871;SDS011;2962;51.312;7.378;2023-02-28T17:20:51;3.63;;;3.42;;
5871;SDS011;2962;51.312;7.378;2023-02-28T17:23:16;3.87;;;3.57;;
5871;SDS011;2962;51.312;7.378;2023-02-28T17:25:42;3.70;;;3.50;;
5871;SDS011;2962;51.312;7.378;2023-02-28T17:28:17;4.60;;;3.35;;
5871;SDS011;2962;51.312;7.378;2023-02-28T17:30:43;4.00;;;3.37;;
5871;SDS011;2962;51.312;7.378;2023-02-28T17:33:11;3.53;;;3.33;;
5871;SDS011;2962;51.312;7.378;2023-02-28T17:35:37;3.67;;;3.20;;
5871;SDS011;2962;51.312;7.378;2023-02-28T17:38:02;4.13;;;3.77;;
5871;SDS011;2962;51.312;7.378;2023-02-28T17:40:27;3.03;;;2.93;;
5871;SDS011;2962;51.312;7.378;2023-02-28T17:42:53;3.40;;;3.20;;
5871;SDS011;2962;51.312;7.378;2023-02-28T17:45:20;3.80;;;3.50;;